sensor_id;sensor_type;location;lat;lon;timestamp;temperature;humidity
65038;DHT22;51605;47.040;15.294;2023-03-01T00:01:13;19.90;53.80
65038;DHT22;51605;47.040;15.294;2023-03-01T00:03:39;20.00;53.90
65038;DHT22;51605;47.040;15.294;2023-03-01T00:06:05;19.90;53.80
65038;DHT22;51605;47.040;15.294;2023-03-01T00:08:31;20.00;53.80
65038;DHT22;51605;47.040;15.294;2023-03-01T00:11:05;19.90;53.80
65038;DHT22;51605;47.040;15.294;2023-03-01T00:13:32;20.00;53.90
65038;DHT22;51605;47.040;15.294;2023-03-01T00:15:57;20.00;53.80
65038;DHT22;51605;47.040;15.294;2023-03-01T00:18:23;20.00;53.80
65038;DHT22;51605;47.040;15.294;2023-03-01T00:20:53;20.00;53.80
65038;DHT22;51605;47.040;15.294;2023-03-01T00:23:19;20.00;53.90
65038;DHT22;51605;47.040;15.294;2023-03-01T00:25:45;20.00;53.80
65038;DHT22;51605;47.040;15.294;2023-03-01T00:28:11;20.00;53.90
65038;DHT22;51605;47.040;15.294;2023-03-01T00:30:36;19.90;53.80
65038;DHT22;51605;47.040;15.294;2023-03-01T00:33:02;20.00;53.90
65038;DHT22;51605;47.040;15.294;2023-03-01T00:35:28;20.00;53.80
65038;DHT22;51605;47.040;15.294;2023-03-01T00:37:53;20.00;53.80
65038;DHT22;51605;47.040;15.294;2023-03-01T00:40:33;19.90;53.70
65038;DHT22;51605;47.040;15.294;2023-03-01T00:43:00;20.00;53.80
65038;DHT22;51605;47.040;15.294;2023-03-01T00:45:25;19.90;53.80
65038;DHT22;51605;47.040;15.294;2023-03-01T00:47:51;19.90;53.80
65038;DHT22;51605;47.040;15.294;2023-03-01T00:50:18;20.00;53.80
65038;DHT22;51605;47.040;15.294;2023-03-01T00:52:44;20.00;53.80
65038;DHT22;51605;47.040;15.294;2023-03-01T00:55:10;20.00;53.80
65038;DHT22;51605;47.040;15.294;2023-03-01T00:57:36;19.90;53.80
65038;DHT22;51605;47.040;15.294;2023-03-01T01:00:04;20.00;53.90
65038;DHT22;51605;47.040;15.294;2023-03-01T01:02:29;19.90;53.80
65038;DHT22;51605;47.040;15.294;2023-03-01T01:04:57;20.00;54.80
65038;DHT22;51605;47.040;15.294;2023-03-01T01:07:22;19.90;53.80
65038;DHT22;51605;47.040;15.294;2023-03-01T01:09:48;20.00;53.90
65038;DHT22;51605;47.040;15.294;2023-03-01T01:12:13;20.00;53.80
65038;DHT22;51605;47.040;15.294;2023-03-01T01:14:39;19.90;53.80
65038;DHT22;51605;47.040;15.294;2023-03-01T01:17:05;19.90;53.80
65038;DHT22;51605;47.040;15.294;2023-03-01T01:19:30;20.00;54.00
65038;DHT22;51605;47.040;15.294;2023-03-01T01:21:56;20.00;53.90
65038;DHT22;51605;47.040;15.294;2023-03-01T01:24:22;19.90;53.80
65038;DHT22;51605;47.040;15.294;2023-03-01T01:26:47;20.00;53.90
65038;DHT22;51605;47.040;15.294;2023-03-01T01:29:13;20.00;53.90
65038;DHT22;51605;47.040;15.294;2023-03-01T01:31:40;20.00;53.90
65038;DHT22;51605;47.040;15.294;2023-03-01T01:34:08;19.90;53.80
65038;DHT22;51605;47.040;15.294;2023-03-01T01:36:34;19.90;53.80
65038;DHT22;51605;47.040;15.294;2023-03-01T01:39:00;19.90;53.80
65038;DHT22;51605;47.040;15.294;2023-03-01T01:41:28;19.90;53.80
65038;DHT22;51605;47.040;15.294;2023-03-01T01:44:22;20.00;53.90
65038;DHT22;51605;47.040;15.294;2023-03-01T01:47:04;19.90;53.80
65038;DHT22;51605;47.040;15.294;2023-03-01T01:52:30;19.90;53.80
65038;DHT22;51605;47.040;15.294;2023-03-01T01:55:07;19.90;53.80
65038;DHT22;51605;47.040;15.294;2023-03-01T01:57:40;20.00;53.90
65038;DHT22;51605;47.040;15.294;2023-03-01T02:00:13;20.00;53.90
65038;DHT22;51605;47.040;15.294;2023-03-01T02:02:40;20.00;53.80
65038;DHT22;51605;47.040;15.294;2023-03-01T02:05:09;20.00;53.80
65038;DHT22;51605;47.040;15.294;2023-03-01T02:07:38;19.90;53.90
65038;DHT22;51605;47.040;15.294;2023-03-01T02:10:05;20.00;53.70
65038;DHT22;51605;47.040;15.294;2023-03-01T02:12:31;20.00;53.70
65038;DHT22;51605;47.040;15.294;2023-03-01T02:14:57;20.00;53.70
65038;DHT22;51605;47.040;15.294;2023-03-01T02:17:23;19.90;53.80
65038;DHT22;51605;47.040;15.294;2023-03-01T02:20:07;19.90;53.80
65038;DHT22;51605;47.040;15.294;2023-03-01T02:22:39;20.00;53.80
65038;DHT22;51605;47.040;15.294;2023-03-01T02:27:40;19.90;53.80
65038;DHT22;51605;47.040;15.294;2023-03-01T02:30:09;20.00;53.90
65038;DHT22;51605;47.040;15.294;2023-03-01T02:32:39;19.90;53.90
65038;DHT22;51605;47.040;15.294;2023-03-01T02:35:09;19.90;53.80
65038;DHT22;51605;47.040;15.294;2023-03-01T02:37:36;20.00;53.90
65038;DHT22;51605;47.040;15.294;2023-03-01T02:40:06;20.00;53.90
65038;DHT22;51605;47.040;15.294;2023-03-01T02:42:41;20.00;53.80
65038;DHT22;51605;47.040;15.294;2023-03-01T02:45:09;20.00;53.80
65038;DHT22;51605;47.040;15.294;2023-03-01T02:47:36;20.00;53.80
65038;DHT22;51605;47.040;15.294;2023-03-01T02:50:01;20.00;53.80
65038;DHT22;51605;47.040;15.294;2023-03-01T02:52:36;20.00;53.80
65038;DHT22;51605;47.040;15.294;2023-03-01T02:55:08;20.00;53.80
65038;DHT22;51605;47.040;15.294;2023-03-01T02:57:36;20.00;53.80
65038;DHT22;51605;47.040;15.294;2023-03-01T03:00:17;20.00;53.80
65038;DHT22;51605;47.040;15.294;2023-03-01T03:02:49;20.00;53.90
65038;DHT22;51605;47.040;15.294;2023-03-01T03:05:29;20.00;53.80
65038;DHT22;51605;47.040;15.294;2023-03-01T03:07:55;19.90;53.80
65038;DHT22;51605;47.040;15.294;2023-03-01T03:10:27;20.00;53.90
65038;DHT22;51605;47.040;15.294;2023-03-01T03:12:58;19.90;53.80
65038;DHT22;51605;47.040;15.294;2023-03-01T03:15:25;20.00;53.80
65038;DHT22;51605;47.040;15.294;2023-03-01T03:17:52;20.00;53.90
65038;DHT22;51605;47.040;15.294;2023-03-01T03:20:20;20.00;53.80
65038;DHT22;51605;47.040;15.294;2023-03-01T03:22:51;20.00;53.80
65038;DHT22;51605;47.040;15.294;2023-03-01T03:25:18;20.00;53.90
65038;DHT22;51605;47.040;15.294;2023-03-01T03:27:46;20.00;53.80
65038;DHT22;51605;47.040;15.294;2023-03-01T03:30:18;20.00;53.80
65038;DHT22;51605;47.040;15.294;2023-03-01T03:32:46;20.00;53.80
65038;DHT22;51605;47.040;15.294;2023-03-01T03:35:19;20.00;53.70
65038;DHT22;51605;47.040;15.294;2023-03-01T03:37:44;20.00;53.80
65038;DHT22;51605;47.040;15.294;2023-03-01T03:40:39;20.00;53.80
65038;DHT22;51605;47.040;15.294;2023-03-01T03:43:11;20.00;53.90
65038;DHT22;51605;47.040;15.294;2023-03-01T03:45:37;20.00;53.80
65038;DHT22;51605;47.040;15.294;2023-03-01T03:48:05;20.00;53.80
65038;DHT22;51605;47.040;15.294;2023-03-01T03:50:31;20.00;53.90
65038;DHT22;51605;47.040;15.294;2023-03-01T03:52:57;20.00;53.80
65038;DHT22;51605;47.040;15.294;2023-03-01T03:55:23;20.00;53.80
65038;DHT22;51605;47.040;15.294;2023-03-01T03:57:53;20.00;53.90
65038;DHT22;51605;47.040;15.294;2023-03-01T04:00:21;20.00;53.90
65038;DHT22;51605;47.040;15.294;2023-03-01T04:02:47;20.00;53.80
65038;DHT22;51605;47.040;15.294;2023-03-01T04:05:15;20.00;53.80
65038;DHT22;51605;47.040;15.294;2023-03-01T04:07:42;20.00;53.80
65038;DHT22;51605;47.040;15.294;2023-03-01T04:10:13;20.00;53.80
65038;DHT22;51605;47.040;15.294;2023-03-01T04:12:40;20.00;53.70
65038;DHT22;51605;47.040;15.294;2023-03-01T04:15:10;20.00;53.70
65038;DHT22;51605;47.040;15.294;2023-03-01T04:17:46;20.00;53.80
65038;DHT22;51605;47.040;15.294;2023-03-01T04:20:20;20.00;53.80
65038;DHT22;51605;47.040;15.294;2023-03-01T04:22:58;20.00;53.80
65038;DHT22;51605;47.040;15.294;2023-03-01T04:25:25;20.00;53.80
65038;DHT22;51605;47.040;15.294;2023-03-01T04:27:50;20.00;53.70
65038;DHT22;51605;47.040;15.294;2023-03-01T04:30:16;20.00;53.70
65038;DHT22;51605;47.040;15.294;2023-03-01T04:32:42;20.00;53.70
65038;DHT22;51605;47.040;15.294;2023-03-01T04:35:08;20.00;53.70
65038;DHT22;51605;47.040;15.294;2023-03-01T04:37:34;20.00;53.70
65038;DHT22;51605;47.040;15.294;2023-03-01T04:40:01;20.00;53.80
65038;DHT22;51605;47.040;15.294;2023-03-01T04:42:26;20.00;53.90
65038;DHT22;51605;47.040;15.294;2023-03-01T04:44:52;20.00;53.90
65038;DHT22;51605;47.040;15.294;2023-03-01T04:47:18;20.00;53.90
65038;DHT22;51605;47.040;15.294;2023-03-01T04:49:43;20.00;53.90
65038;DHT22;51605;47.040;15.294;2023-03-01T04:52:09;20.00;53.90
65038;DHT22;51605;47.040;15.294;2023-03-01T04:54:35;20.00;53.80
65038;DHT22;51605;47.040;15.294;2023-03-01T04:57:02;20.00;53.80
65038;DHT22;51605;47.040;15.294;2023-03-01T04:59:28;20.00;53.80
65038;DHT22;51605;47.040;15.294;2023-03-01T05:01:55;20.00;53.80
65038;DHT22;51605;47.040;15.294;2023-03-01T05:04:24;20.00;53.80
65038;DHT22;51605;47.040;15.294;2023-03-01T05:06:49;20.00;53.70
65038;DHT22;51605;47.040;15.294;2023-03-01T05:09:15;20.00;53.60
65038;DHT22;51605;47.040;15.294;2023-03-01T05:11:41;20.00;53.60
65038;DHT22;51605;47.040;15.294;2023-03-01T05:14:09;20.00;53.70
65038;DHT22;51605;47.040;15.294;2023-03-01T05:16:35;20.00;53.80
65038;DHT22;51605;47.040;15.294;2023-03-01T05:19:02;20.00;53.80
65038;DHT22;51605;47.040;15.294;2023-03-01T05:21:37;20.00;53.90
65038;DHT22;51605;47.040;15.294;2023-03-01T05:24:23;20.00;53.90
65038;DHT22;51605;47.040;15.294;2023-03-01T05:26:49;19.90;53.80
65038;DHT22;51605;47.040;15.294;2023-03-01T05:29:17;20.00;53.90
65038;DHT22;51605;47.040;15.294;2023-03-01T05:31:43;20.00;53.90
65038;DHT22;51605;47.040;15.294;2023-03-01T05:34:09;19.90;53.80
65038;DHT22;51605;47.040;15.294;2023-03-01T05:36:36;19.90;53.90
65038;DHT22;51605;47.040;15.294;2023-03-01T05:39:03;19.90;53.80
65038;DHT22;51605;47.040;15.294;2023-03-01T05:41:29;20.00;53.90
65038;DHT22;51605;47.040;15.294;2023-03-01T05:43:54;20.00;53.90
65038;DHT22;51605;47.040;15.294;2023-03-01T05:46:20;20.00;53.90
65038;DHT22;51605;47.040;15.294;2023-03-01T05:48:46;19.90;53.80
65038;DHT22;51605;47.040;15.294;2023-03-01T05:51:13;19.90;53.80
65038;DHT22;51605;47.040;15.294;2023-03-01T05:53:39;20.00;53.90
65038;DHT22;51605;47.040;15.294;2023-03-01T05:56:04;20.00;53.90
65038;DHT22;51605;47.040;15.294;2023-03-01T05:58:31;20.00;53.90
65038;DHT22;51605;47.040;15.294;2023-03-01T06:00:57;20.00;53.80
65038;DHT22;51605;47.040;15.294;2023-03-01T06:03:23;20.00;53.80
65038;DHT22;51605;47.040;15.294;2023-03-01T06:05:48;20.00;53.80
65038;DHT22;51605;47.040;15.294;2023-03-01T06:08:14;20.00;53.90
65038;DHT22;51605;47.040;15.294;2023-03-01T06:10:40;20.00;53.90
65038;DHT22;51605;47.040;15.294;2023-03-01T06:13:06;20.00;53.90
65038;DHT22;51605;47.040;15.294;2023-03-01T06:15:32;20.00;53.80
65038;DHT22;51605;47.040;15.294;2023-03-01T06:17:57;20.00;53.90
65038;DHT22;51605;47.040;15.294;2023-03-01T06:20:25;20.00;53.90
65038;DHT22;51605;47.040;15.294;2023-03-01T06:22:51;20.00;53.90
65038;DHT22;51605;47.040;15.294;2023-03-01T06:25:20;20.00;53.80
65038;DHT22;51605;47.040;15.294;2023-03-01T06:27:47;20.00;53.80
65038;DHT22;51605;47.040;15.294;2023-03-01T06:30:15;20.00;53.80
65038;DHT22;51605;47.040;15.294;2023-03-01T06:32:41;20.00;53.70
65038;DHT22;51605;47.040;15.294;2023-03-01T06:35:11;20.00;53.80
65038;DHT22;51605;47.040;15.294;2023-03-01T06:37:37;19.90;54.30
65038;DHT22;51605;47.040;15.294;2023-03-01T06:40:04;19.90;53.80
65038;DHT22;51605;47.040;15.294;2023-03-01T06:42:34;20.00;54.00
65038;DHT22;51605;47.040;15.294;2023-03-01T06:45:00;20.00;53.90
65038;DHT22;51605;47.040;15.294;2023-03-01T06:47:26;19.90;53.80
65038;DHT22;51605;47.040;15.294;2023-03-01T06:49:51;20.00;53.90
65038;DHT22;51605;47.040;15.294;2023-03-01T06:52:17;20.00;53.90
65038;DHT22;51605;47.040;15.294;2023-03-01T06:54:42;20.00;53.90
65038;DHT22;51605;47.040;15.294;2023-03-01T06:57:08;20.00;53.90
65038;DHT22;51605;47.040;15.294;2023-03-01T06:59:34;20.00;53.90
65038;DHT22;51605;47.040;15.294;2023-03-01T07:01:59;20.00;53.90
65038;DHT22;51605;47.040;15.294;2023-03-01T07:04:25;20.00;53.90
65038;DHT22;51605;47.040;15.294;2023-03-01T07:06:53;20.00;53.80
65038;DHT22;51605;47.040;15.294;2023-03-01T07:09:21;20.00;53.90
65038;DHT22;51605;47.040;15.294;2023-03-01T07:11:47;20.00;53.90
65038;DHT22;51605;47.040;15.294;2023-03-01T07:14:13;20.00;53.80
65038;DHT22;51605;47.040;15.294;2023-03-01T07:16:38;20.00;53.70
65038;DHT22;51605;47.040;15.294;2023-03-01T07:19:04;20.00;53.70
65038;DHT22;51605;47.040;15.294;2023-03-01T07:21:30;20.00;53.70
65038;DHT22;51605;47.040;15.294;2023-03-01T07:23:56;20.00;53.70
65038;DHT22;51605;47.040;15.294;2023-03-01T07:26:22;20.00;53.70
65038;DHT22;51605;47.040;15.294;2023-03-01T07:28:47;20.00;53.70
65038;DHT22;51605;47.040;15.294;2023-03-01T07:31:14;19.90;53.60
65038;DHT22;51605;47.040;15.294;2023-03-01T07:33:40;20.00;53.70
65038;DHT22;51605;47.040;15.294;2023-03-01T07:36:06;20.00;54.60
65038;DHT22;51605;47.040;15.294;2023-03-01T07:38:32;20.00;53.70
65038;DHT22;51605;47.040;15.294;2023-03-01T07:41:02;20.00;53.70
65038;DHT22;51605;47.040;15.294;2023-03-01T07:43:29;19.90;53.60
65038;DHT22;51605;47.040;15.294;2023-03-01T07:45:57;20.00;53.70
65038;DHT22;51605;47.040;15.294;2023-03-01T07:48:23;20.00;53.70
65038;DHT22;51605;47.040;15.294;2023-03-01T07:50:48;20.00;53.70
65038;DHT22;51605;47.040;15.294;2023-03-01T07:53:14;20.00;53.70
65038;DHT22;51605;47.040;15.294;2023-03-01T07:55:40;20.00;53.70
65038;DHT22;51605;47.040;15.294;2023-03-01T07:58:05;19.90;53.70
65038;DHT22;51605;47.040;15.294;2023-03-01T08:00:31;20.00;53.90
65038;DHT22;51605;47.040;15.294;2023-03-01T08:02:59;20.00;53.90
65038;DHT22;51605;47.040;15.294;2023-03-01T08:05:25;19.90;53.80
65038;DHT22;51605;47.040;15.294;2023-03-01T08:07:51;20.00;53.90
65038;DHT22;51605;47.040;15.294;2023-03-01T08:10:17;20.00;53.90
65038;DHT22;51605;47.040;15.294;2023-03-01T08:12:43;20.00;54.20
65038;DHT22;51605;47.040;15.294;2023-03-01T08:15:09;20.00;54.00
65038;DHT22;51605;47.040;15.294;2023-03-01T08:17:35;20.00;53.90
65038;DHT22;51605;47.040;15.294;2023-03-01T08:20:00;20.00;54.00
65038;DHT22;51605;47.040;15.294;2023-03-01T08:22:26;20.00;53.90
65038;DHT22;51605;47.040;15.294;2023-03-01T08:24:51;20.00;53.90
65038;DHT22;51605;47.040;15.294;2023-03-01T08:27:17;20.00;53.90
65038;DHT22;51605;47.040;15.294;2023-03-01T08:29:43;20.00;54.80
65038;DHT22;51605;47.040;15.294;2023-03-01T08:32:08;20.00;53.90
65038;DHT22;51605;47.040;15.294;2023-03-01T08:34:34;20.00;53.80
65038;DHT22;51605;47.040;15.294;2023-03-01T08:37:01;20.00;53.80
65038;DHT22;51605;47.040;15.294;2023-03-01T08:39:27;20.00;53.80
65038;DHT22;51605;47.040;15.294;2023-03-01T08:41:53;20.00;53.80
65038;DHT22;51605;47.040;15.294;2023-03-01T08:44:18;20.00;53.80
65038;DHT22;51605;47.040;15.294;2023-03-01T08:46:46;20.00;53.80
65038;DHT22;51605;47.040;15.294;2023-03-01T08:49:16;20.00;53.80
65038;DHT22;51605;47.040;15.294;2023-03-01T08:51:43;20.00;53.90
65038;DHT22;51605;47.040;15.294;2023-03-01T08:54:11;20.00;53.90
65038;DHT22;51605;47.040;15.294;2023-03-01T08:56:38;20.00;54.00
65038;DHT22;51605;47.040;15.294;2023-03-01T08:59:04;20.00;53.90
65038;DHT22;51605;47.040;15.294;2023-03-01T09:01:29;20.00;53.90
65038;DHT22;51605;47.040;15.294;2023-03-01T09:03:55;20.00;54.00
65038;DHT22;51605;47.040;15.294;2023-03-01T09:06:21;20.00;54.00
65038;DHT22;51605;47.040;15.294;2023-03-01T09:08:48;20.00;54.00
65038;DHT22;51605;47.040;15.294;2023-03-01T09:11:15;20.00;54.00
65038;DHT22;51605;47.040;15.294;2023-03-01T09:13:43;20.00;54.00
65038;DHT22;51605;47.040;15.294;2023-03-01T09:16:10;20.00;53.90
65038;DHT22;51605;47.040;15.294;2023-03-01T09:18:35;20.00;53.90
65038;DHT22;51605;47.040;15.294;2023-03-01T09:21:06;20.00;53.90
65038;DHT22;51605;47.040;15.294;2023-03-01T09:23:37;20.00;53.90
65038;DHT22;51605;47.040;15.294;2023-03-01T09:26:05;20.00;53.80
65038;DHT22;51605;47.040;15.294;2023-03-01T09:28:31;20.00;54.00
65038;DHT22;51605;47.040;15.294;2023-03-01T09:31:01;20.00;54.00
65038;DHT22;51605;47.040;15.294;2023-03-01T09:33:28;20.00;53.90
65038;DHT22;51605;47.040;15.294;2023-03-01T09:36:17;20.00;53.90
65038;DHT22;51605;47.040;15.294;2023-03-01T09:38:43;20.00;53.90
65038;DHT22;51605;47.040;15.294;2023-03-01T09:43:51;20.00;54.00
65038;DHT22;51605;47.040;15.294;2023-03-01T09:46:23;19.90;53.90
65038;DHT22;51605;47.040;15.294;2023-03-01T09:51:32;20.00;53.90
65038;DHT22;51605;47.040;15.294;2023-03-01T09:53:58;19.90;54.00
65038;DHT22;51605;47.040;15.294;2023-03-01T10:09:33;20.00;54.00
65038;DHT22;51605;47.040;15.294;2023-03-01T10:12:01;20.00;54.00
65038;DHT22;51605;47.040;15.294;2023-03-01T10:14:36;20.00;54.00
65038;DHT22;51605;47.040;15.294;2023-03-01T10:17:44;19.90;54.00
65038;DHT22;51605;47.040;15.294;2023-03-01T10:20:28;20.00;54.00
65038;DHT22;51605;47.040;15.294;2023-03-01T10:22:55;20.00;54.00
65038;DHT22;51605;47.040;15.294;2023-03-01T10:28:18;20.00;54.10
65038;DHT22;51605;47.040;15.294;2023-03-01T10:30:45;20.00;54.10
65038;DHT22;51605;47.040;15.294;2023-03-01T10:33:32;20.00;54.10
65038;DHT22;51605;47.040;15.294;2023-03-01T10:35:59;19.90;54.00
65038;DHT22;51605;47.040;15.294;2023-03-01T10:38:25;20.00;54.00
65038;DHT22;51605;47.040;15.294;2023-03-01T10:40:58;20.00;54.00
65038;DHT22;51605;47.040;15.294;2023-03-01T10:43:26;20.00;54.00
65038;DHT22;51605;47.040;15.294;2023-03-01T10:45:52;20.00;54.10
65038;DHT22;51605;47.040;15.294;2023-03-01T10:48:19;20.00;54.10
65038;DHT22;51605;47.040;15.294;2023-03-01T10:50:50;20.00;54.20
65038;DHT22;51605;47.040;15.294;2023-03-01T10:56:11;19.90;54.20
65038;DHT22;51605;47.040;15.294;2023-03-01T10:59:02;19.90;54.20
65038;DHT22;51605;47.040;15.294;2023-03-01T11:01:33;20.00;54.20
65038;DHT22;51605;47.040;15.294;2023-03-01T11:04:11;20.00;54.20
65038;DHT22;51605;47.040;15.294;2023-03-01T11:06:38;20.00;54.20
65038;DHT22;51605;47.040;15.294;2023-03-01T11:09:21;20.00;54.10
65038;DHT22;51605;47.040;15.294;2023-03-01T11:11:55;20.00;54.20
65038;DHT22;51605;47.040;15.294;2023-03-01T11:14:23;20.00;54.40
65038;DHT22;51605;47.040;15.294;2023-03-01T11:17:02;20.00;54.50
65038;DHT22;51605;47.040;15.294;2023-03-01T11:19:29;20.00;54.30
65038;DHT22;51605;47.040;15.294;2023-03-01T11:24:45;20.00;54.20
65038;DHT22;51605;47.040;15.294;2023-03-01T11:27:27;20.00;54.20
65038;DHT22;51605;47.040;15.294;2023-03-01T11:30:05;20.00;54.20
65038;DHT22;51605;47.040;15.294;2023-03-01T11:32:43;20.00;54.20
65038;DHT22;51605;47.040;15.294;2023-03-01T11:35:16;20.00;54.60
65038;DHT22;51605;47.040;15.294;2023-03-01T11:40:16;20.00;54.20
65038;DHT22;51605;47.040;15.294;2023-03-01T11:45:53;20.00;54.20
65038;DHT22;51605;47.040;15.294;2023-03-01T11:48:43;20.00;54.10
65038;DHT22;51605;47.040;15.294;2023-03-01T11:57:01;20.00;54.20
65038;DHT22;51605;47.040;15.294;2023-03-01T12:05:16;20.00;54.20
65038;DHT22;51605;47.040;15.294;2023-03-01T12:11:03;20.00;54.20
65038;DHT22;51605;47.040;15.294;2023-03-01T12:24:15;20.00;54.30
65038;DHT22;51605;47.040;15.294;2023-03-01T12:35:21;20.00;54.20
65038;DHT22;51605;47.040;15.294;2023-03-01T12:40:43;20.00;54.20
65038;DHT22;51605;47.040;15.294;2023-03-01T12:48:55;19.90;54.20
65038;DHT22;51605;47.040;15.294;2023-03-01T12:51:30;19.90;54.20
65038;DHT22;51605;47.040;15.294;2023-03-01T12:53:58;20.00;54.20
65038;DHT22;51605;47.040;15.294;2023-03-01T12:56:30;20.00;54.20
65038;DHT22;51605;47.040;15.294;2023-03-01T12:59:14;19.90;54.30
65038;DHT22;51605;47.040;15.294;2023-03-01T13:01:56;20.00;54.20
65038;DHT22;51605;47.040;15.294;2023-03-01T13:09:50;20.00;54.10
65038;DHT22;51605;47.040;15.294;2023-03-01T13:12:42;19.90;54.20
65038;DHT22;51605;47.040;15.294;2023-03-01T13:17:50;20.00;54.20
65038;DHT22;51605;47.040;15.294;2023-03-01T13:20:18;20.00;54.20
65038;DHT22;51605;47.040;15.294;2023-03-01T13:22:45;20.00;54.10
65038;DHT22;51605;47.040;15.294;2023-03-01T13:25:18;20.00;54.10
65038;DHT22;51605;47.040;15.294;2023-03-01T13:27:46;19.90;54.20
65038;DHT22;51605;47.040;15.294;2023-03-01T13:30:39;19.90;54.30
65038;DHT22;51605;47.040;15.294;2023-03-01T13:35:48;20.00;54.20
65038;DHT22;51605;47.040;15.294;2023-03-01T13:46:51;20.00;54.20
65038;DHT22;51605;47.040;15.294;2023-03-01T13:49:23;20.00;54.10
65038;DHT22;51605;47.040;15.294;2023-03-01T13:51:52;19.90;54.10
65038;DHT22;51605;47.040;15.294;2023-03-01T13:54:31;20.00;54.20
65038;DHT22;51605;47.040;15.294;2023-03-01T13:57:00;19.90;54.20
65038;DHT22;51605;47.040;15.294;2023-03-01T13:59:27;20.00;54.20
65038;DHT22;51605;47.040;15.294;2023-03-01T14:01:59;20.00;54.20
65038;DHT22;51605;47.040;15.294;2023-03-01T14:04:32;20.00;54.10
65038;DHT22;51605;47.040;15.294;2023-03-01T14:07:19;20.00;54.10
65038;DHT22;51605;47.040;15.294;2023-03-01T14:09:47;20.00;54.10
65038;DHT22;51605;47.040;15.294;2023-03-01T14:12:43;20.00;54.10
65038;DHT22;51605;47.040;15.294;2023-03-01T14:15:34;20.00;54.10
65038;DHT22;51605;47.040;15.294;2023-03-01T14:18:19;20.00;54.20
65038;DHT22;51605;47.040;15.294;2023-03-01T14:20:47;19.90;54.10
65038;DHT22;51605;47.040;15.294;2023-03-01T14:23:19;19.90;54.10
65038;DHT22;51605;47.040;15.294;2023-03-01T14:25:49;20.00;54.10
65038;DHT22;51605;47.040;15.294;2023-03-01T14:28:25;20.00;54.10
65038;DHT22;51605;47.040;15.294;2023-03-01T14:30:57;20.00;54.20
65038;DHT22;51605;47.040;15.294;2023-03-01T14:33:33;19.90;54.20
65038;DHT22;51605;47.040;15.294;2023-03-01T14:36:03;19.90;54.50
65038;DHT22;51605;47.040;15.294;2023-03-01T14:38:42;20.00;55.80
65038;DHT22;51605;47.040;15.294;2023-03-01T14:41:11;20.00;55.50
65038;DHT22;51605;47.040;15.294;2023-03-01T14:43:40;20.00;55.80
65038;DHT22;51605;47.040;15.294;2023-03-01T14:46:24;20.00;55.70
65038;DHT22;51605;47.040;15.294;2023-03-01T14:48:58;20.00;55.40
65038;DHT22;51605;47.040;15.294;2023-03-01T14:51:26;20.00;55.20
65038;DHT22;51605;47.040;15.294;2023-03-01T14:53:52;20.00;56.00
65038;DHT22;51605;47.040;15.294;2023-03-01T14:56:19;20.00;56.20
65038;DHT22;51605;47.040;15.294;2023-03-01T14:58:44;20.00;55.50
65038;DHT22;51605;47.040;15.294;2023-03-01T15:01:15;20.00;55.30
65038;DHT22;51605;47.040;15.294;2023-03-01T15:03:49;20.00;55.10
65038;DHT22;51605;47.040;15.294;2023-03-01T15:06:18;20.00;56.00
65038;DHT22;51605;47.040;15.294;2023-03-01T15:08:47;20.00;55.10
65038;DHT22;51605;47.040;15.294;2023-03-01T15:13:41;20.00;54.90
65038;DHT22;51605;47.040;15.294;2023-03-01T15:16:16;20.00;54.80
65038;DHT22;51605;47.040;15.294;2023-03-01T15:18:53;20.00;54.90
65038;DHT22;51605;47.040;15.294;2023-03-01T15:24:39;20.00;54.80
65038;DHT22;51605;47.040;15.294;2023-03-01T15:29:25;20.00;54.80
65038;DHT22;51605;47.040;15.294;2023-03-01T15:32:01;20.00;54.70
65038;DHT22;51605;47.040;15.294;2023-03-01T15:34:37;20.00;54.70
65038;DHT22;51605;47.040;15.294;2023-03-01T15:37:05;20.00;54.70
65038;DHT22;51605;47.040;15.294;2023-03-01T15:42:23;20.00;54.70
65038;DHT22;51605;47.040;15.294;2023-03-01T15:48:14;20.00;54.60
65038;DHT22;51605;47.040;15.294;2023-03-01T15:50:40;20.00;54.50
65038;DHT22;51605;47.040;15.294;2023-03-01T15:53:12;20.00;54.50
65038;DHT22;51605;47.040;15.294;2023-03-01T15:55:39;20.00;54.50
65038;DHT22;51605;47.040;15.294;2023-03-01T15:58:23;20.00;54.50
65038;DHT22;51605;47.040;15.294;2023-03-01T16:00:50;20.00;54.60
65038;DHT22;51605;47.040;15.294;2023-03-01T16:03:22;20.00;54.50
65038;DHT22;51605;47.040;15.294;2023-03-01T16:05:51;20.00;55.90
65038;DHT22;51605;47.040;15.294;2023-03-01T16:08:17;20.00;55.90
65038;DHT22;51605;47.040;15.294;2023-03-01T16:10:43;20.00;55.50
65038;DHT22;51605;47.040;15.294;2023-03-01T16:13:11;20.00;55.40
65038;DHT22;51605;47.040;15.294;2023-03-01T16:15:36;20.00;55.30
65038;DHT22;51605;47.040;15.294;2023-03-01T16:18:03;20.00;55.30
65038;DHT22;51605;47.040;15.294;2023-03-01T16:20:31;20.00;55.20
65038;DHT22;51605;47.040;15.294;2023-03-01T16:23:02;20.00;55.10
65038;DHT22;51605;47.040;15.294;2023-03-01T16:25:28;20.00;55.00
65038;DHT22;51605;47.040;15.294;2023-03-01T16:27:55;20.00;55.00
65038;DHT22;51605;47.040;15.294;2023-03-01T16:30:23;20.00;55.00
65038;DHT22;51605;47.040;15.294;2023-03-01T16:32:50;20.00;55.00
65038;DHT22;51605;47.040;15.294;2023-03-01T16:35:18;20.00;54.90
65038;DHT22;51605;47.040;15.294;2023-03-01T16:37:46;20.00;54.90
65038;DHT22;51605;47.040;15.294;2023-03-01T16:40:24;20.00;54.90
65038;DHT22;51605;47.040;15.294;2023-03-01T16:42:51;20.00;55.00
65038;DHT22;51605;47.040;15.294;2023-03-01T16:45:18;20.10;55.40
65038;DHT22;51605;47.040;15.294;2023-03-01T16:47:44;20.10;55.50
65038;DHT22;51605;47.040;15.294;2023-03-01T16:50:10;20.00;55.10
65038;DHT22;51605;47.040;15.294;2023-03-01T16:52:37;20.00;55.60
65038;DHT22;51605;47.040;15.294;2023-03-01T16:55:03;20.00;55.40
65038;DHT22;51605;47.040;15.294;2023-03-01T16:57:30;20.00;56.20
65038;DHT22;51605;47.040;15.294;2023-03-01T16:59:55;20.10;56.60
65038;DHT22;51605;47.040;15.294;2023-03-01T17:02:21;20.20;57.40
65038;DHT22;51605;47.040;15.294;2023-03-01T17:04:55;20.30;56.70
65038;DHT22;51605;47.040;15.294;2023-03-01T17:07:21;20.30;56.70
65038;DHT22;51605;47.040;15.294;2023-03-01T17:09:48;20.30;56.80
65038;DHT22;51605;47.040;15.294;2023-03-01T17:12:14;20.30;56.90
65038;DHT22;51605;47.040;15.294;2023-03-01T17:14:40;20.30;56.60
65038;DHT22;51605;47.040;15.294;2023-03-01T17:17:10;20.30;56.20
65038;DHT22;51605;47.040;15.294;2023-03-01T17:19:36;20.30;56.00
65038;DHT22;51605;47.040;15.294;2023-03-01T17:22:06;20.20;55.80